createdAt,value
2018-07-26T00:00:05.099Z,26.30
2018-07-26T00:02:33.294Z,26.20
2018-07-26T00:05:01.480Z,26.10
2018-07-26T00:07:29.675Z,26.00
2018-07-26T00:09:57.899Z,25.90
2018-07-26T00:12:26.097Z,25.90
2018-07-26T00:17:22.404Z,25.90
2018-07-26T00:19:50.584Z,25.80
2018-07-26T00:22:18.780Z,25.80
2018-07-26T00:24:46.986Z,25.80
2018-07-26T00:27:15.188Z,25.70
2018-07-26T00:29:43.356Z,25.60
2018-07-26T00:32:11.548Z,25.60
2018-07-26T00:34:39.728Z,25.60
2018-07-26T00:37:07.958Z,25.50
2018-07-26T00:39:36.196Z,25.40
2018-07-26T00:42:04.378Z,25.40
2018-07-26T00:44:32.570Z,25.30
2018-07-26T00:47:00.898Z,25.30
2018-07-26T00:49:29.120Z,25.20
2018-07-26T00:51:57.308Z,25.20
2018-07-26T00:54:25.516Z,25.20
2018-07-26T00:56:53.704Z,25.20
2018-07-26T00:59:21.910Z,25.20
2018-07-26T01:01:50.109Z,25.20
2018-07-26T01:04:18.363Z,25.10
2018-07-26T01:06:46.565Z,25.00
2018-07-26T01:09:14.760Z,25.00
2018-07-26T01:11:42.926Z,25.00
2018-07-26T01:14:11.222Z,25.00
2018-07-26T01:16:39.404Z,25.00
2018-07-26T01:19:07.606Z,24.90
2018-07-26T01:21:35.833Z,24.90
2018-07-26T01:24:04.068Z,24.90
2018-07-26T01:26:32.264Z,24.80
2018-07-26T01:29:00.437Z,24.80
2018-07-26T01:31:28.630Z,24.80
2018-07-26T01:33:56.818Z,24.80
2018-07-26T01:36:25.018Z,24.80
2018-07-26T01:38:53.294Z,24.80
2018-07-26T01:41:21.499Z,24.80
2018-07-26T01:44:01.058Z,24.80
2018-07-26T01:46:29.246Z,24.80
2018-07-26T01:48:57.456Z,24.60
2018-07-26T01:51:25.640Z,24.50
2018-07-26T01:53:53.826Z,24.50
2018-07-26T01:58:50.114Z,24.40
2018-07-26T02:01:18.334Z,24.40
2018-07-26T02:03:46.525Z,24.30
2018-07-26T02:06:14.715Z,24.30
2018-07-26T02:08:42.978Z,24.30
2018-07-26T02:11:11.213Z,24.30
2018-07-26T02:13:39.428Z,24.30
2018-07-26T02:16:07.611Z,24.20
2018-07-26T02:18:35.837Z,24.20
2018-07-26T02:21:04.033Z,24.20
2018-07-26T02:23:32.218Z,24.30
2018-07-26T02:26:00.418Z,24.30
2018-07-26T02:30:56.695Z,24.30
2018-07-26T02:33:24.835Z,24.30
2018-07-26T02:35:53.061Z,24.30
2018-07-26T02:38:21.311Z,24.30
2018-07-26T02:40:49.515Z,24.30
2018-07-26T02:43:17.708Z,24.30
2018-07-26T02:45:45.876Z,24.30
2018-07-26T02:48:14.131Z,24.30
2018-07-26T02:50:42.333Z,24.30
2018-07-26T02:53:10.559Z,24.30
2018-07-26T02:55:38.977Z,24.30
2018-07-26T02:58:07.166Z,24.30
2018-07-26T03:00:35.367Z,24.30
2018-07-26T03:05:31.552Z,24.30
2018-07-26T03:07:59.857Z,24.20
2018-07-26T03:10:28.077Z,24.30
2018-07-26T03:12:56.259Z,24.30
2018-07-26T03:15:24.526Z,24.30
2018-07-26T03:17:52.776Z,24.30
2018-07-26T03:20:20.969Z,24.20
2018-07-26T03:22:49.183Z,24.10
2018-07-26T03:25:17.383Z,24.00
2018-07-26T03:27:45.578Z,23.90
2018-07-26T03:30:13.830Z,23.90
2018-07-26T03:32:42.441Z,23.90
2018-07-26T03:35:10.628Z,23.80
2018-07-26T03:37:38.820Z,23.80
2018-07-26T03:40:07.111Z,23.70
2018-07-26T03:42:35.301Z,23.70
2018-07-26T03:45:03.521Z,23.70
2018-07-26T03:47:31.713Z,23.70
2018-07-26T03:49:59.914Z,23.70
2018-07-26T03:52:28.110Z,23.70
2018-07-26T03:54:56.295Z,23.60
2018-07-26T03:57:24.500Z,23.50
2018-07-26T03:59:52.680Z,23.40
2018-07-26T04:02:20.942Z,23.40
2018-07-26T04:04:49.263Z,23.40
2018-07-26T04:07:17.451Z,23.40
2018-07-26T04:09:45.645Z,23.40
2018-07-26T04:12:13.854Z,23.50
2018-07-26T04:14:42.115Z,23.50
2018-07-26T04:17:10.309Z,23.50
2018-07-26T04:19:38.511Z,23.50
2018-07-26T04:22:06.743Z,23.60
2018-07-26T04:24:34.905Z,23.60
2018-07-26T04:27:03.120Z,23.60
2018-07-26T04:29:31.314Z,23.70
2018-07-26T04:31:59.568Z,23.60
2018-07-26T04:34:27.726Z,23.70
2018-07-26T04:36:55.915Z,23.70
2018-07-26T04:39:24.109Z,23.60
2018-07-26T04:41:52.337Z,23.60
2018-07-26T04:44:20.568Z,23.70
2018-07-26T04:46:48.774Z,23.70
2018-07-26T04:49:16.961Z,23.60
2018-07-26T04:51:45.155Z,23.70
2018-07-26T04:56:41.543Z,23.70
2018-07-26T04:59:09.736Z,23.70
2018-07-26T05:01:41.362Z,23.70
2018-07-26T05:04:09.674Z,23.70
2018-07-26T05:06:37.865Z,23.80
2018-07-26T05:09:08.012Z,23.90
2018-07-26T05:11:36.246Z,23.90
2018-07-26T05:14:04.436Z,24.00
2018-07-26T05:16:32.630Z,24.10
2018-07-26T05:19:00.879Z,24.10
2018-07-26T05:21:29.020Z,24.20
2018-07-26T05:23:57.253Z,24.30
2018-07-26T05:26:25.421Z,24.40
2018-07-26T05:28:53.654Z,24.40
2018-07-26T05:31:21.845Z,24.50
2018-07-26T05:33:50.084Z,24.60
2018-07-26T05:36:18.346Z,24.70
2018-07-26T05:38:46.738Z,24.80
2018-07-26T05:41:14.964Z,24.90
2018-07-26T05:43:43.174Z,25.10
2018-07-26T05:46:11.384Z,25.20
2018-07-26T05:48:39.594Z,25.40
2018-07-26T05:51:07.828Z,25.50
2018-07-26T05:53:36.068Z,25.60
2018-07-26T05:56:04.282Z,25.80
2018-07-26T05:58:32.492Z,25.90
2018-07-26T06:01:00.681Z,26.00
2018-07-26T06:03:29.228Z,26.10
2018-07-26T06:05:57.520Z,26.20
2018-07-26T06:08:25.771Z,26.30
2018-07-26T06:10:53.988Z,26.30
2018-07-26T06:13:22.220Z,26.40
2018-07-26T06:15:50.424Z,26.50
2018-07-26T06:18:18.924Z,26.60
2018-07-26T06:20:47.091Z,26.70
2018-07-26T06:23:15.308Z,26.80
2018-07-26T06:25:43.487Z,26.80
2018-07-26T06:28:11.867Z,26.90
2018-07-26T06:30:39.998Z,27.00
2018-07-26T06:35:36.322Z,27.20
2018-07-26T06:38:04.587Z,27.30
2018-07-26T06:40:32.781Z,27.50
2018-07-26T06:43:00.976Z,27.50
2018-07-26T06:45:29.182Z,27.60
2018-07-26T06:47:57.620Z,27.70
2018-07-26T06:50:25.866Z,27.70
2018-07-26T06:52:54.118Z,27.90
2018-07-26T06:57:50.489Z,27.90
2018-07-26T07:00:18.686Z,28.10
2018-07-26T07:02:46.884Z,28.20
2018-07-26T07:05:15.078Z,28.20
2018-07-26T07:07:43.275Z,28.30
2018-07-26T07:10:11.503Z,28.40
2018-07-26T07:12:39.692Z,28.50
2018-07-26T07:15:08.194Z,28.60
2018-07-26T07:17:36.388Z,28.80
2018-07-26T07:20:05.290Z,28.90
2018-07-26T07:22:33.478Z,29.00
2018-07-26T07:25:01.693Z,29.00
2018-07-26T07:27:29.872Z,29.10
2018-07-26T07:29:58.082Z,29.20
2018-07-26T07:32:26.290Z,29.30
2018-07-26T07:34:54.470Z,29.40
2018-07-26T07:37:22.699Z,29.50
2018-07-26T07:39:50.903Z,29.60
2018-07-26T07:42:19.139Z,29.60
2018-07-26T07:44:47.323Z,29.80
2018-07-26T07:47:15.563Z,29.90
2018-07-26T07:49:43.763Z,29.90
2018-07-26T07:54:39.934Z,30.10
2018-07-26T07:59:36.109Z,30.30
2018-07-26T08:02:04.273Z,30.40
2018-07-26T08:04:32.458Z,30.50
2018-07-26T08:07:00.725Z,30.60
2018-07-26T08:09:28.954Z,30.70
2018-07-26T08:11:57.155Z,30.70
2018-07-26T08:14:25.362Z,30.80
2018-07-26T08:16:53.579Z,30.90
2018-07-26T08:19:21.757Z,31.10
2018-07-26T08:21:49.928Z,31.20
2018-07-26T08:24:18.126Z,31.30
2018-07-26T08:26:46.335Z,31.40
2018-07-26T08:29:14.636Z,31.50
2018-07-26T08:31:42.839Z,31.60
2018-07-26T08:34:11.116Z,31.70
2018-07-26T08:36:39.319Z,31.90
2018-07-26T08:39:09.132Z,32.00
2018-07-26T08:41:37.330Z,32.00
2018-07-26T08:44:05.862Z,32.20
2018-07-26T08:46:34.110Z,32.20
2018-07-26T08:49:02.320Z,32.20
2018-07-26T08:51:30.505Z,32.40
2018-07-26T08:53:58.698Z,32.40
2018-07-26T08:56:26.898Z,32.50
2018-07-26T08:58:55.119Z,32.60
2018-07-26T09:01:23.322Z,32.70
2018-07-26T09:03:51.549Z,32.80
2018-07-26T09:06:19.746Z,32.90
2018-07-26T09:08:47.993Z,33.00
2018-07-26T09:11:16.212Z,33.10
2018-07-26T09:13:44.419Z,33.30
2018-07-26T09:16:12.621Z,33.40
2018-07-26T09:18:40.877Z,33.40
2018-07-26T09:21:09.052Z,33.40
2018-07-26T09:23:37.255Z,33.50
2018-07-26T09:26:05.544Z,33.70
2018-07-26T09:28:33.798Z,33.70
2018-07-26T09:33:29.961Z,33.90
2018-07-26T09:35:58.167Z,34.00
2018-07-26T09:38:26.365Z,34.10
2018-07-26T09:40:54.576Z,34.10
2018-07-26T09:43:22.751Z,34.20
2018-07-26T09:45:50.951Z,34.60
2018-07-26T09:48:19.224Z,35.00
2018-07-26T09:50:47.494Z,35.50
2018-07-26T09:53:15.765Z,36.10
2018-07-26T09:55:43.976Z,36.60
2018-07-26T09:58:12.585Z,37.10
2018-07-26T10:00:46.071Z,37.40
2018-07-26T10:03:14.637Z,37.90
2018-07-26T10:05:42.933Z,38.60
2018-07-26T10:08:11.171Z,39.50
2018-07-26T10:10:39.445Z,40.30
2018-07-26T10:13:07.623Z,40.30
2018-07-26T10:15:35.810Z,40.60
2018-07-26T10:18:03.991Z,41.20
2018-07-26T10:20:32.199Z,41.30
2018-07-26T10:23:00.398Z,41.30
2018-07-26T10:25:28.647Z,41.60
2018-07-26T10:27:57.205Z,41.50
2018-07-26T10:30:25.529Z,41.40
2018-07-26T10:32:54.033Z,41.30
2018-07-26T10:35:22.497Z,41.80
2018-07-26T10:37:50.931Z,42.20
2018-07-26T10:40:19.145Z,42.50
2018-07-26T10:42:47.331Z,43.00
2018-07-26T10:45:15.565Z,43.50
2018-07-26T10:47:43.780Z,43.60
2018-07-26T10:50:11.999Z,43.90
2018-07-26T10:52:40.523Z,44.20
2018-07-26T10:55:08.955Z,44.50
2018-07-26T10:57:38.179Z,45.00
2018-07-26T11:00:07.669Z,45.20
2018-07-26T11:05:04.773Z,45.00
2018-07-26T11:10:00.937Z,44.90
2018-07-26T11:12:29.156Z,44.40
2018-07-26T11:15:35.692Z,44.30
2018-07-26T11:18:04.227Z,44.60
2018-07-26T11:23:00.637Z,45.00
2018-07-26T11:25:28.894Z,45.20
2018-07-26T11:27:57.508Z,45.50
2018-07-26T11:30:25.781Z,45.70
2018-07-26T11:32:53.965Z,46.10
2018-07-26T11:35:22.325Z,46.20
2018-07-26T11:37:50.565Z,45.70
2018-07-26T11:40:18.732Z,45.20
2018-07-26T11:42:46.931Z,44.60
2018-07-26T11:45:15.123Z,44.50
2018-07-26T11:47:43.321Z,44.20
2018-07-26T11:50:12.073Z,44.30
2018-07-26T11:52:40.392Z,44.40
2018-07-26T11:55:08.589Z,43.90
2018-07-26T11:57:36.795Z,43.80
2018-07-26T12:00:06.030Z,43.90
2018-07-26T12:02:34.324Z,44.50
2018-07-26T12:05:02.452Z,45.40
2018-07-26T12:07:30.625Z,45.90
2018-07-26T12:09:58.833Z,46.20
2018-07-26T12:12:27.028Z,46.10
2018-07-26T12:14:55.394Z,45.90
2018-07-26T12:17:23.641Z,45.50
2018-07-26T12:19:51.853Z,45.20
2018-07-26T12:22:20.025Z,45.00
2018-07-26T12:24:48.241Z,45.20
2018-07-26T12:27:16.531Z,45.10
2018-07-26T12:29:44.743Z,45.00
2018-07-26T12:32:12.966Z,45.50
2018-07-26T12:34:41.191Z,46.10
2018-07-26T12:37:09.425Z,46.60
2018-07-26T12:39:37.613Z,46.60
2018-07-26T12:42:06.659Z,46.00
2018-07-26T12:44:34.837Z,45.90
2018-07-26T12:47:03.027Z,46.40
2018-07-26T12:49:31.230Z,46.60
2018-07-26T12:51:59.415Z,47.30
2018-07-26T12:54:27.636Z,47.80
2018-07-26T12:56:55.814Z,47.60
2018-07-26T12:59:24.055Z,47.10
2018-07-26T13:01:52.289Z,47.30
2018-07-26T13:04:21.459Z,47.70
2018-07-26T13:06:49.644Z,48.30
2018-07-26T13:09:17.843Z,48.00
2018-07-26T13:11:46.071Z,47.40
2018-07-26T13:14:14.278Z,47.00
2018-07-26T13:16:42.468Z,46.70
2018-07-26T13:19:10.687Z,46.30
2018-07-26T13:21:38.909Z,46.10
2018-07-26T13:24:07.177Z,46.50
2018-07-26T13:26:35.399Z,46.80
2018-07-26T13:29:03.646Z,47.20
2018-07-26T13:31:31.877Z,47.30
2018-07-26T13:34:00.090Z,47.40
2018-07-26T13:36:28.295Z,47.40
2018-07-26T13:38:56.471Z,47.10
2018-07-26T13:41:24.692Z,46.30
2018-07-26T13:43:53.021Z,46.30
2018-07-26T13:46:21.365Z,46.70
2018-07-26T13:48:49.584Z,46.90
2018-07-26T13:51:17.768Z,46.80
2018-07-26T13:53:45.959Z,46.70
2018-07-26T13:56:14.150Z,46.50
2018-07-26T13:58:42.417Z,46.70
2018-07-26T14:01:10.647Z,47.00
2018-07-26T14:03:39.286Z,46.90
2018-07-26T14:06:07.522Z,46.80
2018-07-26T14:08:35.737Z,46.40
2018-07-26T14:11:03.936Z,46.50
2018-07-26T14:13:32.208Z,47.00
2018-07-26T14:16:00.558Z,47.40
2018-07-26T14:18:28.659Z,47.50
2018-07-26T14:20:56.874Z,47.20
2018-07-26T14:23:30.415Z,46.90
2018-07-26T14:25:58.599Z,46.70
2018-07-26T14:28:26.868Z,46.30
2018-07-26T14:30:55.088Z,46.30
2018-07-26T14:33:23.264Z,46.40
2018-07-26T14:35:51.476Z,46.10
2018-07-26T14:38:19.841Z,45.40
2018-07-26T14:40:47.990Z,44.90
2018-07-26T14:43:16.271Z,44.30
2018-07-26T14:45:44.526Z,43.10
2018-07-26T14:48:12.802Z,42.70
2018-07-26T14:50:41.000Z,42.90
2018-07-26T14:53:09.280Z,43.00
2018-07-26T14:55:37.548Z,42.60
2018-07-26T14:58:05.790Z,42.20
2018-07-26T15:00:34.012Z,41.70
2018-07-26T15:03:02.204Z,41.30
2018-07-26T15:05:30.449Z,40.90
2018-07-26T15:07:58.918Z,40.50
2018-07-26T15:10:27.081Z,40.10
2018-07-26T15:12:55.256Z,39.80
2018-07-26T15:15:23.476Z,39.80
2018-07-26T15:17:51.752Z,39.90
2018-07-26T15:20:19.988Z,39.70
2018-07-26T15:22:48.192Z,39.50
2018-07-26T15:27:48.728Z,39.40
2018-07-26T15:30:16.930Z,39.30
2018-07-26T15:32:45.129Z,39.10
2018-07-26T15:35:13.323Z,39.00
2018-07-26T15:37:41.627Z,39.00
2018-07-26T15:40:09.780Z,39.00
2018-07-26T15:42:37.960Z,38.90
2018-07-26T15:45:06.444Z,38.60
2018-07-26T15:47:34.776Z,38.40
2018-07-26T15:50:02.981Z,38.20
2018-07-26T15:52:31.239Z,38.00
2018-07-26T15:54:59.752Z,38.00
2018-07-26T15:57:28.088Z,38.00
2018-07-26T15:59:56.607Z,38.10
2018-07-26T16:02:24.854Z,38.00
2018-07-26T16:04:53.063Z,38.10
2018-07-26T16:07:21.826Z,38.00
2018-07-26T16:09:50.282Z,38.10
2018-07-26T16:12:18.525Z,38.20
2018-07-26T16:14:46.714Z,38.40
2018-07-26T16:17:14.924Z,38.50
2018-07-26T16:19:43.160Z,38.40
2018-07-26T16:22:11.463Z,38.20
2018-07-26T16:24:39.642Z,38.00
2018-07-26T16:27:07.890Z,37.80
2018-07-26T16:29:36.087Z,37.60
2018-07-26T16:32:04.364Z,37.30
2018-07-26T16:34:32.549Z,37.30
2018-07-26T16:37:00.773Z,37.10
2018-07-26T16:39:28.994Z,37.10
2018-07-26T16:41:57.160Z,36.90
2018-07-26T16:44:25.414Z,36.70
2018-07-26T16:46:53.655Z,36.50
2018-07-26T16:49:21.876Z,36.40
2018-07-26T16:51:50.052Z,36.40
2018-07-26T16:54:18.274Z,36.50
2018-07-26T16:56:46.549Z,36.70
2018-07-26T16:59:14.712Z,36.90
2018-07-26T17:01:46.001Z,37.10
2018-07-26T17:04:14.263Z,37.30
2018-07-26T17:06:42.483Z,37.20
2018-07-26T17:09:11.448Z,37.20
2018-07-26T17:11:39.969Z,37.10
2018-07-26T17:14:08.170Z,37.00
2018-07-26T17:16:36.373Z,36.90
2018-07-26T17:19:04.687Z,37.00
2018-07-26T17:21:33.033Z,37.10
2018-07-26T17:24:01.242Z,37.10
2018-07-26T17:26:29.427Z,37.00
2018-07-26T17:28:57.653Z,37.00
2018-07-26T17:31:25.833Z,36.80
2018-07-26T17:33:54.287Z,36.70
2018-07-26T17:36:22.485Z,36.40
2018-07-26T17:38:50.704Z,36.30
2018-07-26T17:41:18.942Z,36.20
2018-07-26T17:43:47.308Z,36.10
2018-07-26T17:46:15.510Z,36.00
2018-07-26T17:48:43.811Z,35.90
2018-07-26T17:51:12.045Z,35.80
2018-07-26T17:53:40.356Z,35.60
2018-07-26T17:56:08.813Z,35.60
2018-07-26T17:58:37.034Z,35.40
2018-07-26T18:01:05.275Z,35.20
2018-07-26T18:03:33.658Z,35.10
2018-07-26T18:06:02.012Z,35.00
2018-07-26T18:08:30.198Z,34.90
2018-07-26T18:10:58.408Z,34.90
2018-07-26T18:13:26.602Z,34.80
2018-07-26T18:15:54.872Z,34.70
2018-07-26T18:18:23.098Z,34.60
2018-07-26T18:20:51.301Z,34.40
2018-07-26T18:23:19.492Z,34.20
2018-07-26T18:25:47.688Z,34.10
2018-07-26T18:28:16.075Z,34.00
2018-07-26T18:30:44.231Z,33.90
2018-07-26T18:38:08.687Z,33.50
2018-07-26T18:40:36.914Z,33.40
2018-07-26T18:43:05.231Z,33.30
2018-07-26T18:45:33.425Z,33.20
2018-07-26T18:48:01.667Z,33.10
2018-07-26T18:50:29.903Z,33.00
2018-07-26T18:52:58.081Z,32.80
2018-07-26T18:55:26.287Z,32.80
2018-07-26T18:57:54.702Z,32.60
2018-07-26T19:00:23.037Z,32.60
2018-07-26T19:02:51.232Z,32.50
2018-07-26T19:05:19.422Z,32.30
2018-07-26T19:07:47.631Z,32.30
2018-07-26T19:12:43.810Z,32.10
2018-07-26T19:15:12.416Z,32.00
2018-07-26T19:17:40.708Z,31.90
2018-07-26T19:20:10.263Z,31.80
2018-07-26T19:25:07.340Z,31.70
2018-07-26T19:30:04.693Z,31.50
2018-07-26T19:32:32.926Z,31.40
2018-07-26T19:35:01.111Z,31.40
2018-07-26T19:37:29.343Z,31.30
2018-07-26T19:39:57.534Z,31.20
2018-07-26T19:42:25.817Z,31.20
2018-07-26T19:44:54.015Z,31.10
2018-07-26T19:47:22.419Z,31.10
2018-07-26T19:49:50.809Z,31.00
2018-07-26T19:52:18.983Z,31.00
2018-07-26T19:54:47.211Z,31.00
2018-07-26T19:57:15.478Z,31.00
2018-07-26T19:59:43.713Z,31.00
2018-07-26T20:02:12.163Z,30.90
2018-07-26T20:04:40.333Z,30.90
2018-07-26T20:07:08.533Z,30.90
2018-07-26T20:12:04.772Z,30.90
2018-07-26T20:14:32.971Z,30.80
2018-07-26T20:19:29.592Z,30.80
2018-07-26T20:21:57.825Z,30.70
2018-07-26T20:24:26.061Z,30.60
2018-07-26T20:26:54.293Z,30.60
2018-07-26T20:29:22.473Z,30.50
2018-07-26T20:31:50.670Z,30.50
2018-07-26T20:34:18.871Z,30.40
2018-07-26T20:36:47.061Z,30.40
2018-07-26T20:39:15.255Z,30.40
2018-07-26T20:41:43.458Z,30.30
2018-07-26T20:44:11.827Z,30.30
2018-07-26T20:51:36.771Z,30.10
2018-07-26T20:56:32.979Z,30.00
2018-07-26T20:59:01.171Z,29.90
2018-07-26T21:01:29.388Z,29.80
2018-07-26T21:06:25.595Z,29.70
2018-07-26T21:08:53.883Z,29.70
2018-07-26T21:11:22.378Z,29.60
2018-07-26T21:13:50.578Z,29.60
2018-07-26T21:16:18.805Z,29.50
2018-07-26T21:18:47.298Z,29.40
2018-07-26T21:21:15.849Z,29.40
2018-07-26T21:23:44.072Z,29.30
2018-07-26T21:26:12.258Z,29.30
2018-07-26T21:28:40.473Z,29.20
2018-07-26T21:31:08.725Z,29.20
2018-07-26T21:33:36.959Z,29.10
2018-07-26T21:36:05.338Z,29.10
2018-07-26T21:41:01.522Z,29.00
2018-07-26T21:43:29.740Z,29.00
2018-07-26T21:45:57.953Z,28.90
2018-07-26T21:48:26.215Z,28.90
2018-07-26T21:50:54.418Z,28.80
2018-07-26T21:53:22.732Z,28.80
2018-07-26T21:55:50.912Z,28.70
2018-07-26T21:58:19.124Z,28.70
2018-07-26T22:00:52.617Z,28.60
2018-07-26T22:03:20.907Z,28.50
2018-07-26T22:05:49.100Z,28.40
2018-07-26T22:08:17.396Z,28.40
2018-07-26T22:10:45.588Z,28.30
2018-07-26T22:13:13.764Z,28.20
2018-07-26T22:18:10.131Z,28.10
2018-07-26T22:20:38.384Z,28.10
2018-07-26T22:23:06.964Z,28.00
2018-07-26T22:25:35.144Z,28.00
2018-07-26T22:28:03.650Z,27.90
2018-07-26T22:30:31.884Z,27.80
2018-07-26T22:33:00.086Z,27.80
2018-07-26T22:35:28.275Z,27.70
2018-07-26T22:37:56.770Z,27.60
2018-07-26T22:40:24.936Z,27.60
2018-07-26T22:42:53.146Z,27.50
2018-07-26T22:45:21.358Z,27.50
2018-07-26T22:47:49.684Z,27.40
2018-07-26T22:50:17.906Z,27.40
2018-07-26T22:52:46.086Z,27.30
2018-07-26T22:55:14.296Z,27.30
2018-07-26T22:57:42.470Z,27.20
2018-07-26T23:00:10.696Z,27.10
2018-07-26T23:02:38.888Z,27.10
2018-07-26T23:05:07.092Z,27.00
2018-07-26T23:07:35.282Z,27.00
2018-07-26T23:10:03.624Z,27.00
2018-07-26T23:12:31.896Z,27.00
2018-07-26T23:15:00.112Z,26.90
2018-07-26T23:17:28.348Z,26.90
2018-07-26T23:19:56.554Z,26.90
2018-07-26T23:22:24.816Z,26.90
2018-07-26T23:24:53.536Z,26.80
2018-07-26T23:27:21.721Z,26.80
2018-07-26T23:29:49.976Z,26.80
2018-07-26T23:32:18.164Z,26.80
2018-07-26T23:34:46.353Z,26.70
2018-07-26T23:37:14.588Z,26.70
2018-07-26T23:39:42.975Z,26.70
2018-07-26T23:42:11.190Z,26.70
2018-07-26T23:44:39.378Z,26.60
2018-07-26T23:47:07.606Z,26.60
2018-07-26T23:49:35.821Z,26.60
2018-07-26T23:52:04.028Z,26.60
2018-07-26T23:54:32.213Z,26.50
2018-07-26T23:57:00.400Z,26.50
2018-07-26T23:59:28.666Z,26.50
